createdAt,value
2018-07-07T00:00:11.556Z,0
2018-07-07T00:01:21.624Z,0
2018-07-07T00:02:31.480Z,0
2018-07-07T00:03:41.563Z,0
2018-07-07T00:04:51.637Z,0
2018-07-07T00:06:01.714Z,0
2018-07-07T00:07:11.508Z,0
2018-07-07T00:08:21.358Z,0
2018-07-07T00:09:31.413Z,0
2018-07-07T00:10:41.210Z,0
2018-07-07T00:11:51.305Z,0
2018-07-07T00:13:01.115Z,0
2018-07-07T00:14:11.251Z,0
2018-07-07T00:15:21.067Z,0
2018-07-07T00:16:31.130Z,0
2018-07-07T00:17:40.936Z,0
2018-07-07T00:18:51.041Z,0
2018-07-07T00:20:01.163Z,0
2018-07-07T00:21:10.688Z,0
2018-07-07T00:22:20.492Z,0
2018-07-07T00:23:30.282Z,0
2018-07-07T00:24:40.061Z,0
2018-07-07T00:25:50.217Z,0
2018-07-07T00:26:59.978Z,0
2018-07-07T00:28:09.524Z,0
2018-07-07T00:29:19.323Z,0
2018-07-07T00:30:29.399Z,0
2018-07-07T00:31:39.250Z,0
2018-07-07T00:32:49.032Z,0
2018-07-07T00:33:58.553Z,0
2018-07-07T00:35:08.063Z,0
2018-07-07T00:36:17.871Z,0
2018-07-07T00:37:27.724Z,0
2018-07-07T00:38:37.527Z,0
2018-07-07T00:39:47.313Z,0
2018-07-07T00:40:57.392Z,0
2018-07-07T00:42:07.459Z,0
2018-07-07T00:43:17.319Z,0
2018-07-07T00:44:27.121Z,0
2018-07-07T00:45:36.653Z,0
2018-07-07T00:46:46.720Z,0
2018-07-07T00:47:56.495Z,0
2018-07-07T00:49:06.071Z,0
2018-07-07T00:50:16.153Z,0
2018-07-07T00:51:25.942Z,0
2018-07-07T00:52:36.000Z,0
2018-07-07T00:53:45.801Z,0
2018-07-07T00:54:55.913Z,0
2018-07-07T00:56:05.701Z,0
2018-07-07T00:57:15.780Z,4
2018-07-07T00:58:25.583Z,4
2018-07-07T00:59:34.841Z,4
2018-07-07T01:00:44.696Z,4
2018-07-07T01:01:54.512Z,0
2018-07-07T01:03:04.316Z,0
2018-07-07T01:04:14.124Z,0
2018-07-07T01:05:24.202Z,4
2018-07-07T01:06:34.046Z,4
2018-07-07T01:07:43.846Z,4
2018-07-07T01:08:53.915Z,4
2018-07-07T01:10:03.983Z,4
2018-07-07T01:11:13.515Z,4
2018-07-07T01:12:23.648Z,4
2018-07-07T01:13:33.705Z,4
2018-07-07T01:14:43.792Z,4
2018-07-07T01:15:53.888Z,8
2018-07-07T01:17:03.981Z,4
2018-07-07T01:18:14.100Z,4
2018-07-07T01:19:23.887Z,8
2018-07-07T01:20:33.701Z,8
2018-07-07T01:21:43.760Z,8
2018-07-07T01:22:53.837Z,8
2018-07-07T01:24:03.411Z,8
2018-07-07T01:25:13.229Z,12
2018-07-07T01:26:23.283Z,8
2018-07-07T01:27:33.069Z,12
2018-07-07T01:28:43.136Z,12
2018-07-07T01:29:52.722Z,12
2018-07-07T01:31:02.772Z,16
2018-07-07T01:32:12.302Z,20
2018-07-07T01:33:22.364Z,24
2018-07-07T01:34:32.158Z,24
2018-07-07T01:35:42.282Z,28
2018-07-07T01:36:52.096Z,32
2018-07-07T01:38:01.620Z,36
2018-07-07T01:39:11.430Z,40
2018-07-07T01:40:21.247Z,40
2018-07-07T01:41:30.836Z,44
2018-07-07T01:42:40.651Z,52
2018-07-07T01:43:50.704Z,52
2018-07-07T01:45:00.243Z,56
2018-07-07T01:46:10.323Z,64
2018-07-07T01:47:20.182Z,64
2018-07-07T01:48:29.718Z,68
2018-07-07T01:49:39.307Z,72
2018-07-07T01:50:49.406Z,76
2018-07-07T01:51:59.492Z,80
2018-07-07T01:53:09.126Z,80
2018-07-07T01:54:19.221Z,84
2018-07-07T01:55:29.019Z,88
2018-07-07T01:56:39.085Z,92
2018-07-07T01:57:48.888Z,100
2018-07-07T01:58:59.014Z,104
2018-07-07T02:00:08.545Z,108
2018-07-07T02:01:18.344Z,108
2018-07-07T02:02:28.155Z,116
2018-07-07T02:03:38.227Z,120
2018-07-07T02:04:48.349Z,124
2018-07-07T02:05:58.401Z,128
2018-07-07T02:07:08.191Z,132
2018-07-07T02:08:18.269Z,140
2018-07-07T02:09:28.060Z,148
2018-07-07T02:10:38.212Z,160
2018-07-07T02:11:48.282Z,168
2018-07-07T02:12:58.074Z,176
2018-07-07T02:14:07.869Z,188
2018-07-07T02:15:17.665Z,196
2018-07-07T02:16:26.973Z,208
2018-07-07T02:17:37.047Z,220
2018-07-07T02:18:47.003Z,232
2018-07-07T02:19:56.625Z,244
2018-07-07T02:21:06.156Z,256
2018-07-07T02:22:15.727Z,272
2018-07-07T02:23:25.538Z,284
2018-07-07T02:24:35.620Z,304
2018-07-07T02:25:45.679Z,316
2018-07-07T02:26:55.750Z,324
2018-07-07T02:28:05.896Z,336
2018-07-07T02:29:15.694Z,344
2018-07-07T02:30:25.503Z,360
2018-07-07T02:31:35.314Z,372
2018-07-07T02:32:45.405Z,380
2018-07-07T02:33:55.256Z,396
2018-07-07T02:35:05.067Z,412
2018-07-07T02:36:14.880Z,432
2018-07-07T02:37:24.952Z,444
2018-07-07T02:38:35.044Z,464
2018-07-07T02:39:45.184Z,480
2018-07-07T02:40:55.238Z,504
2018-07-07T02:42:05.326Z,528
2018-07-07T02:43:14.854Z,548
2018-07-07T02:44:24.384Z,576
2018-07-07T02:45:33.958Z,600
2018-07-07T02:46:44.033Z,612
2018-07-07T02:47:54.106Z,628
2018-07-07T02:49:03.917Z,644
2018-07-07T02:50:13.716Z,652
2018-07-07T02:51:23.865Z,656
2018-07-07T02:52:33.653Z,676
2018-07-07T02:53:43.740Z,676
2018-07-07T02:54:53.827Z,692
2018-07-07T02:56:03.625Z,708
2018-07-07T02:57:13.227Z,728
2018-07-07T02:58:23.309Z,744
2018-07-07T02:59:32.857Z,768
2018-07-07T03:03:48.366Z,828
2018-07-07T03:04:58.155Z,852
2018-07-07T03:06:07.401Z,868
2018-07-07T03:07:17.487Z,892
2018-07-07T03:08:27.321Z,912
2018-07-07T03:09:37.442Z,928
2018-07-07T03:10:47.257Z,952
2018-07-07T03:11:57.353Z,968
2018-07-07T03:13:07.438Z,984
2018-07-07T03:14:16.957Z,1000
2018-07-07T03:15:26.819Z,1020
2018-07-07T03:16:36.090Z,1040
2018-07-07T03:17:46.166Z,1060
2018-07-07T03:18:55.990Z,1088
2018-07-07T03:20:05.807Z,1104
2018-07-07T03:21:15.674Z,1132
2018-07-07T03:22:25.467Z,1164
2018-07-07T03:23:35.006Z,1208
2018-07-07T03:24:44.556Z,1252
2018-07-07T03:25:54.640Z,1296
2018-07-07T03:27:04.754Z,1332
2018-07-07T03:28:14.009Z,1348
2018-07-07T03:29:23.794Z,1368
2018-07-07T03:30:33.314Z,1428
2018-07-07T03:31:43.100Z,1568
2018-07-07T03:32:53.223Z,1772
2018-07-07T03:34:03.017Z,1944
2018-07-07T03:35:12.816Z,2044
2018-07-07T03:36:22.866Z,2036
2018-07-07T03:37:32.669Z,2032
2018-07-07T03:38:42.799Z,2056
2018-07-07T03:39:52.883Z,2076
2018-07-07T03:41:02.678Z,2168
2018-07-07T03:42:12.930Z,2280
2018-07-07T03:43:22.546Z,2364
2018-07-07T03:44:32.132Z,2444
2018-07-07T03:45:42.246Z,2480
2018-07-07T03:46:52.336Z,2520
2018-07-07T03:48:02.427Z,2528
2018-07-07T03:49:12.255Z,2548
2018-07-07T03:50:22.176Z,2556
2018-07-07T03:51:31.690Z,2492
2018-07-07T03:52:41.772Z,2468
2018-07-07T03:53:51.590Z,2524
2018-07-07T03:55:01.397Z,2576
2018-07-07T03:56:11.521Z,2608
2018-07-07T03:57:21.316Z,2608
2018-07-07T03:58:31.124Z,2612
2018-07-07T03:59:40.655Z,2632
2018-07-07T04:00:50.751Z,2656
2018-07-07T04:02:00.600Z,2692
2018-07-07T04:03:10.390Z,2704
2018-07-07T04:04:20.464Z,2752
2018-07-07T04:05:30.525Z,2736
2018-07-07T04:06:40.585Z,2740
2018-07-07T04:07:50.166Z,2752
2018-07-07T04:08:59.969Z,2744
2018-07-07T04:10:09.218Z,2748
2018-07-07T04:11:19.291Z,2740
2018-07-07T04:12:29.083Z,2768
2018-07-07T04:13:38.930Z,2752
2018-07-07T04:14:48.981Z,2756
2018-07-07T04:15:59.040Z,2768
2018-07-07T04:17:08.859Z,2780
2018-07-07T04:18:18.664Z,2816
2018-07-07T04:19:28.526Z,2840
2018-07-07T04:20:38.597Z,2840
2018-07-07T04:21:48.384Z,2836
2018-07-07T04:22:58.463Z,2840
2018-07-07T04:24:08.018Z,2872
2018-07-07T04:25:17.596Z,2964
2018-07-07T04:26:27.394Z,3052
2018-07-07T04:27:37.195Z,3168
2018-07-07T04:28:47.002Z,3236
2018-07-07T04:29:57.080Z,3348
2018-07-07T04:31:07.190Z,3300
2018-07-07T04:32:16.988Z,3432
2018-07-07T04:33:27.058Z,3508
2018-07-07T04:34:37.135Z,3468
2018-07-07T04:35:47.236Z,3492
2018-07-07T04:36:56.813Z,3480
2018-07-07T04:38:06.621Z,3532
2018-07-07T04:39:16.671Z,3704
2018-07-07T04:40:26.460Z,3760
2018-07-07T04:41:36.261Z,3784
2018-07-07T04:42:46.368Z,3768
2018-07-07T04:43:56.170Z,3848
2018-07-07T04:45:05.699Z,3872
2018-07-07T04:46:15.231Z,3808
2018-07-07T04:47:25.062Z,3884
2018-07-07T04:48:34.892Z,3864
2018-07-07T04:49:44.963Z,3956
2018-07-07T04:50:55.029Z,3928
2018-07-07T04:52:05.101Z,3840
2018-07-07T04:53:14.918Z,3916
2018-07-07T04:54:24.487Z,3656
2018-07-07T04:55:34.029Z,3588
2018-07-07T04:56:43.562Z,3600
2018-07-07T04:57:53.635Z,3648
2018-07-07T04:59:03.721Z,3740
2018-07-07T05:00:13.589Z,3740
2018-07-07T05:01:23.123Z,3620
2018-07-07T05:02:33.190Z,3588
2018-07-07T05:03:42.717Z,3612
2018-07-07T05:04:52.791Z,3628
2018-07-07T05:06:02.616Z,3648
2018-07-07T05:07:12.428Z,3684
2018-07-07T05:08:22.513Z,3624
2018-07-07T05:09:32.303Z,3608
2018-07-07T05:10:42.367Z,3632
2018-07-07T05:11:52.496Z,3960
2018-07-07T05:13:02.564Z,3996
2018-07-07T05:14:12.661Z,3968
2018-07-07T05:15:22.753Z,3876
2018-07-07T05:16:32.333Z,3776
2018-07-07T05:17:42.465Z,3664
2018-07-07T05:18:52.275Z,3536
2018-07-07T05:20:02.077Z,3420
2018-07-07T05:21:11.873Z,3296
2018-07-07T05:22:21.680Z,3180
2018-07-07T05:23:31.514Z,3124
2018-07-07T05:24:41.589Z,3120
2018-07-07T05:25:51.662Z,3140
2018-07-07T05:27:01.733Z,3192
2018-07-07T05:28:11.524Z,3240
2018-07-07T05:29:21.644Z,3280
2018-07-07T05:30:31.442Z,3352
2018-07-07T05:31:41.261Z,3376
2018-07-07T05:32:51.118Z,3336
2018-07-07T05:34:00.913Z,3208
2018-07-07T05:35:11.032Z,3324
2018-07-07T05:36:21.095Z,3268
2018-07-07T05:37:30.901Z,3292
2018-07-07T05:38:40.443Z,3292
2018-07-07T05:39:50.244Z,3184
2018-07-07T05:41:00.375Z,3112
2018-07-07T05:42:10.176Z,3056
2018-07-07T05:43:20.260Z,3048
2018-07-07T05:44:30.060Z,3040
2018-07-07T05:45:40.121Z,3036
2018-07-07T05:46:50.244Z,3040
2018-07-07T05:48:00.039Z,3048
2018-07-07T05:49:09.832Z,3048
2018-07-07T05:50:19.361Z,3044
2018-07-07T05:51:29.148Z,3056
2018-07-07T05:52:39.286Z,3048
2018-07-07T05:53:49.354Z,3052
2018-07-07T05:54:59.154Z,3044
2018-07-07T05:56:09.232Z,3056
2018-07-07T05:57:18.793Z,3064
2018-07-07T05:58:28.956Z,3052
2018-07-07T05:59:38.477Z,3056
2018-07-07T06:00:48.292Z,3060
2018-07-07T06:01:58.352Z,3052
2018-07-07T06:03:08.161Z,3056
2018-07-07T06:04:18.304Z,3060
2018-07-07T06:05:28.364Z,3064
2018-07-07T06:06:38.420Z,3080
2018-07-07T06:07:48.515Z,3072
2018-07-07T06:08:58.582Z,3072
2018-07-07T06:10:08.492Z,3076
2018-07-07T06:11:18.302Z,3096
2018-07-07T06:12:28.113Z,3084
2018-07-07T06:13:37.636Z,3092
2018-07-07T06:14:47.208Z,3096
2018-07-07T06:15:57.340Z,3112
2018-07-07T06:17:07.143Z,3104
2018-07-07T06:18:16.717Z,3104
2018-07-07T06:19:26.599Z,3112
2018-07-07T06:20:36.683Z,3132
2018-07-07T06:21:46.544Z,3136
2018-07-07T06:22:56.618Z,3132
2018-07-07T06:24:06.428Z,3136
2018-07-07T06:25:16.261Z,3128
2018-07-07T06:26:26.190Z,3144
2018-07-07T06:27:36.411Z,3148
2018-07-07T06:28:46.474Z,3148
2018-07-07T06:29:56.557Z,3152
2018-07-07T06:31:06.088Z,3156
2018-07-07T06:32:16.132Z,3156
2018-07-07T06:33:25.713Z,3168
2018-07-07T06:34:35.519Z,3160
2018-07-07T06:35:45.054Z,3176
2018-07-07T06:37:05.391Z,3184
2018-07-07T06:38:18.707Z,3192
2018-07-07T06:39:28.253Z,3184
2018-07-07T06:40:38.422Z,3196
2018-07-07T06:41:48.485Z,3200
2018-07-07T06:42:58.303Z,3212
2018-07-07T06:44:08.162Z,3216
2018-07-07T06:45:18.234Z,3220
2018-07-07T06:46:28.292Z,3220
2018-07-07T06:47:38.366Z,3228
2018-07-07T06:48:48.158Z,3232
2018-07-07T06:49:58.264Z,3232
2018-07-07T06:51:08.070Z,3240
2018-07-07T06:52:17.853Z,3256
2018-07-07T06:53:27.652Z,3260
2018-07-07T06:54:37.734Z,3264
2018-07-07T06:55:47.043Z,3272
2018-07-07T06:56:57.119Z,3296
2018-07-07T06:58:06.907Z,3288
2018-07-07T06:59:16.986Z,3288
2018-07-07T07:00:26.787Z,3288
2018-07-07T07:01:36.646Z,3300
2018-07-07T07:02:46.464Z,3324
2018-07-07T07:03:56.284Z,3320
2018-07-07T07:05:06.359Z,3328
2018-07-07T07:06:16.138Z,3320
2018-07-07T07:07:25.719Z,3320
2018-07-07T07:08:35.517Z,3320
2018-07-07T07:09:44.511Z,3328
2018-07-07T07:10:54.315Z,3328
2018-07-07T07:12:04.659Z,3336
2018-07-07T07:13:14.533Z,3340
2018-07-07T07:14:24.348Z,3348
2018-07-07T07:15:33.879Z,3364
2018-07-07T07:16:43.690Z,3360
2018-07-07T07:17:53.832Z,3376
2018-07-07T07:19:03.692Z,3392
2018-07-07T07:20:12.945Z,3392
2018-07-07T07:21:22.735Z,3416
2018-07-07T07:22:32.804Z,3404
2018-07-07T07:23:42.879Z,3404
2018-07-07T07:24:52.750Z,3412
2018-07-07T07:26:03.153Z,3420
2018-07-07T07:27:13.427Z,3424
2018-07-07T07:28:22.963Z,3436
2018-07-07T07:29:32.769Z,3476
2018-07-07T07:30:42.907Z,3496
2018-07-07T07:31:52.993Z,3552
2018-07-07T07:33:02.991Z,3612
2018-07-07T07:34:12.525Z,3688
2018-07-07T07:35:22.615Z,3768
2018-07-07T07:36:32.757Z,3788
2018-07-07T07:37:42.863Z,3716
2018-07-07T07:38:52.669Z,3640
2018-07-07T07:40:02.463Z,3588
2018-07-07T07:41:12.257Z,3564
2018-07-07T07:42:22.100Z,3564
2018-07-07T07:43:31.639Z,3560
2018-07-07T07:44:41.457Z,3556
2018-07-07T07:45:51.240Z,3568
2018-07-07T07:47:01.030Z,3600
2018-07-07T07:48:10.609Z,3600
2018-07-07T07:49:20.405Z,3620
2018-07-07T07:50:30.223Z,3668
2018-07-07T07:51:40.306Z,3632
2018-07-07T07:52:50.423Z,3604
2018-07-07T07:54:00.445Z,3592
2018-07-07T07:55:10.530Z,3592
2018-07-07T07:56:20.327Z,3604
2018-07-07T07:57:30.403Z,3636
2018-07-07T07:58:40.215Z,3668
2018-07-07T07:59:50.335Z,3672
2018-07-07T08:00:59.862Z,3672
2018-07-07T08:02:09.683Z,3664
2018-07-07T08:03:19.765Z,3688
2018-07-07T08:04:29.569Z,3664
2018-07-07T08:05:39.699Z,3672
2018-07-07T08:06:49.485Z,3668
2018-07-07T08:07:59.563Z,3660
2018-07-07T08:09:09.704Z,3688
2018-07-07T08:10:19.792Z,3704
2018-07-07T08:11:29.707Z,3700
2018-07-07T08:12:39.505Z,3700
2018-07-07T08:13:49.572Z,3708
2018-07-07T08:14:59.367Z,3708
2018-07-07T08:16:09.204Z,3724
2018-07-07T08:17:18.773Z,3736
2018-07-07T08:18:28.592Z,3744
2018-07-07T08:19:38.394Z,3752
2018-07-07T08:20:48.442Z,3756
2018-07-07T08:21:58.589Z,3776
2018-07-07T08:23:08.624Z,3804
2018-07-07T08:24:18.441Z,3816
2018-07-07T08:25:28.500Z,3812
2018-07-07T08:26:38.309Z,3812
2018-07-07T08:27:48.387Z,3820
2018-07-07T08:28:58.487Z,3828
2018-07-07T08:30:08.283Z,3844
2018-07-07T08:31:18.078Z,3856
2018-07-07T08:32:28.137Z,3852
2018-07-07T08:33:38.219Z,3876
2018-07-07T08:34:48.375Z,3880
2018-07-07T08:35:58.494Z,3892
2018-07-07T08:37:08.289Z,3916
2018-07-07T08:38:18.337Z,3928
2018-07-07T08:39:28.406Z,3944
2018-07-07T08:40:38.539Z,3948
2018-07-07T08:41:47.843Z,3952
2018-07-07T08:42:58.037Z,3956
2018-07-07T08:44:08.117Z,3968
2018-07-07T08:45:17.927Z,3968
2018-07-07T08:46:27.778Z,3980
2018-07-07T08:47:37.311Z,3992
2018-07-07T08:48:47.140Z,3996
2018-07-07T08:49:56.934Z,4000
2018-07-07T08:51:07.003Z,4004
2018-07-07T08:52:16.582Z,4016
2018-07-07T08:53:26.666Z,4020
2018-07-07T08:54:36.463Z,4032
2018-07-07T08:55:46.276Z,4052
2018-07-07T08:56:56.088Z,4052
2018-07-07T08:58:05.665Z,4064
2018-07-07T08:59:15.203Z,4072
2018-07-07T09:00:25.271Z,4076
2018-07-07T09:01:35.054Z,4084
2018-07-07T09:02:45.131Z,4096
2018-07-07T09:03:55.247Z,4112
2018-07-07T09:05:05.029Z,4132
2018-07-07T09:06:14.830Z,4128
2018-07-07T09:07:24.628Z,4152
2018-07-07T09:08:34.144Z,4164
2018-07-07T09:09:43.724Z,4180
2018-07-07T09:10:53.797Z,4192
2018-07-07T09:12:03.879Z,4208
2018-07-07T09:13:13.951Z,4216
2018-07-07T09:14:24.393Z,4228
2018-07-07T09:15:34.229Z,4248
2018-07-07T09:16:44.042Z,4268
2018-07-07T09:17:53.846Z,4280
2018-07-07T09:19:03.904Z,4312
2018-07-07T09:20:13.704Z,4332
2018-07-07T09:21:24.189Z,4352
2018-07-07T09:22:34.258Z,4364
2018-07-07T09:23:44.312Z,4364
2018-07-07T09:24:54.407Z,4388
2018-07-07T09:26:03.955Z,4400
2018-07-07T09:27:14.096Z,4416
2018-07-07T09:28:23.912Z,4428
2018-07-07T09:29:33.978Z,4440
2018-07-07T09:30:44.039Z,4464
2018-07-07T09:31:53.861Z,4484
2018-07-07T09:33:03.703Z,4500
2018-07-07T09:34:13.802Z,4520
2018-07-07T09:35:23.625Z,4532
2018-07-07T09:36:33.695Z,4544
2018-07-07T09:37:43.490Z,4556
2018-07-07T09:38:53.532Z,4560
2018-07-07T09:40:03.443Z,4584
2018-07-07T09:41:12.971Z,4600
2018-07-07T09:42:22.805Z,4608
2018-07-07T09:43:32.601Z,4624
2018-07-07T09:44:42.718Z,4660
2018-07-07T09:45:52.804Z,4716
2018-07-07T09:47:02.889Z,4748
2018-07-07T09:48:12.711Z,4796
2018-07-07T09:49:22.516Z,4868
2018-07-07T09:50:32.636Z,4900
2018-07-07T09:51:42.717Z,4960
2018-07-07T09:52:52.530Z,5068
2018-07-07T09:54:02.317Z,5192
2018-07-07T09:55:12.122Z,5252
2018-07-07T09:56:22.448Z,5152
2018-07-07T09:57:32.681Z,4980
2018-07-07T09:58:42.234Z,4964
2018-07-07T09:59:52.028Z,4996
2018-07-07T10:01:02.114Z,5020
2018-07-07T10:02:11.704Z,5040
2018-07-07T10:03:21.516Z,5060
2018-07-07T10:04:31.050Z,5048
2018-07-07T10:05:40.875Z,5048
2018-07-07T10:06:50.680Z,5056
2018-07-07T10:08:00.525Z,5052
2018-07-07T10:09:10.057Z,5024
2018-07-07T10:10:19.859Z,5012
2018-07-07T10:11:29.934Z,5020
2018-07-07T10:12:39.751Z,5044
2018-07-07T10:13:49.886Z,5060
2018-07-07T10:14:59.688Z,5092
2018-07-07T10:16:09.230Z,5116
2018-07-07T10:17:18.764Z,5124
2018-07-07T10:18:28.302Z,5144
2018-07-07T10:19:38.161Z,5188
2018-07-07T10:20:48.158Z,5252
2018-07-07T10:21:58.295Z,5320
2018-07-07T10:23:07.827Z,5468
2018-07-07T10:24:17.640Z,5688
2018-07-07T10:25:27.010Z,5952
2018-07-07T10:26:36.553Z,6324
2018-07-07T10:27:46.357Z,6964
2018-07-07T10:28:55.897Z,8124
2018-07-07T10:30:05.986Z,9488
2018-07-07T10:31:15.845Z,10708
2018-07-07T10:32:25.906Z,11336
2018-07-07T10:33:35.996Z,10820
2018-07-07T10:34:46.065Z,11632
2018-07-07T10:35:55.583Z,11392
2018-07-07T10:37:05.465Z,12416
2018-07-07T10:38:15.526Z,13380
2018-07-07T10:39:25.683Z,13352
2018-07-07T10:40:35.744Z,13664
2018-07-07T10:41:45.814Z,12688
2018-07-07T10:42:55.945Z,10908
2018-07-07T10:44:05.477Z,9852
2018-07-07T10:45:14.731Z,8920
2018-07-07T10:46:24.806Z,8028
2018-07-07T10:47:34.663Z,7512
2018-07-07T10:48:44.799Z,7208
2018-07-07T10:49:54.619Z,7016
2018-07-07T10:51:04.426Z,6968
2018-07-07T10:52:14.232Z,7040
2018-07-07T10:53:24.044Z,7020
2018-07-07T10:54:33.907Z,6876
2018-07-07T10:55:44.134Z,6848
2018-07-07T10:56:54.203Z,6968
2018-07-07T10:58:04.002Z,7336
2018-07-07T10:59:13.807Z,7944
2018-07-07T11:00:23.668Z,8360
2018-07-07T11:01:33.188Z,8296
2018-07-07T11:02:43.668Z,7120
2018-07-07T11:03:53.224Z,8008
2018-07-07T11:05:03.319Z,8172
2018-07-07T11:06:13.457Z,8428
2018-07-07T11:07:23.254Z,8592
2018-07-07T11:08:33.070Z,8872
2018-07-07T11:09:42.595Z,9396
2018-07-07T11:10:52.410Z,10088
2018-07-07T11:12:02.508Z,11212
2018-07-07T11:13:12.474Z,12820
2018-07-07T11:14:22.567Z,14820
2018-07-07T11:15:32.640Z,17088
2018-07-07T11:16:42.457Z,19104
2018-07-07T11:17:52.317Z,20192
2018-07-07T11:19:02.391Z,20704
2018-07-07T11:20:12.083Z,20352
2018-07-07T11:21:22.154Z,18912
2018-07-07T11:22:31.696Z,17856
2018-07-07T11:23:41.617Z,16896
2018-07-07T11:24:51.478Z,16256
2018-07-07T11:26:01.295Z,16000
2018-07-07T11:27:10.832Z,15872
2018-07-07T11:28:20.374Z,15872
2018-07-07T11:29:30.228Z,16032
2018-07-07T11:30:40.302Z,16384
2018-07-07T11:31:50.436Z,16768
2018-07-07T11:33:00.524Z,17088
2018-07-07T11:34:10.070Z,17312
2018-07-07T11:35:19.922Z,17664
2018-07-07T11:36:30.121Z,18048
2018-07-07T11:37:40.111Z,18464
2018-07-07T11:38:50.194Z,18656
2018-07-07T11:40:00.251Z,18688
2018-07-07T11:41:10.390Z,18496
2018-07-07T11:42:20.684Z,18304
2018-07-07T11:43:30.961Z,18144
2018-07-07T11:44:41.032Z,18144
2018-07-07T11:45:50.572Z,18368
2018-07-07T11:47:00.432Z,18880
2018-07-07T11:48:10.497Z,19712
2018-07-07T11:49:20.589Z,20768
2018-07-07T11:50:30.787Z,21664
2018-07-07T11:51:40.980Z,22528
2018-07-07T11:52:50.835Z,23648
2018-07-07T11:54:00.922Z,23840
2018-07-07T11:55:10.725Z,24160
2018-07-07T11:56:20.813Z,24416
2018-07-07T11:57:30.885Z,25376
2018-07-07T11:58:40.759Z,25984
2018-07-07T11:59:50.826Z,26880
2018-07-07T12:01:00.634Z,32832
2018-07-07T12:02:10.574Z,27936
2018-07-07T12:03:20.647Z,26368
2018-07-07T12:04:30.761Z,25664
2018-07-07T12:05:40.757Z,25760
2018-07-07T12:06:50.287Z,25952
2018-07-07T12:08:21.415Z,26784
2018-07-07T12:09:30.993Z,28224
2018-07-07T12:10:40.248Z,30656
2018-07-07T12:11:50.085Z,34176
2018-07-07T12:13:00.162Z,34656
2018-07-07T12:14:10.251Z,29920
2018-07-07T12:15:20.116Z,42240
2018-07-07T12:16:29.919Z,65664
2018-07-07T12:17:39.559Z,52480
2018-07-07T12:18:49.660Z,54048
2018-07-07T12:19:59.487Z,64768
2018-07-07T12:21:08.815Z,62816
2018-07-07T12:22:18.625Z,58016
2018-07-07T12:23:28.431Z,36320
2018-07-07T12:24:38.512Z,37120
2018-07-07T12:25:48.595Z,39392
2018-07-07T12:26:58.175Z,33376
2018-07-07T12:28:08.327Z,36512
2018-07-07T12:29:18.390Z,38976
2018-07-07T12:30:28.213Z,36192
2018-07-07T12:31:38.345Z,63456
2018-07-07T12:32:48.210Z,40704
2018-07-07T12:33:58.303Z,41440
2018-07-07T12:35:08.112Z,71040
2018-07-07T12:36:17.642Z,48512
2018-07-07T12:37:27.446Z,38752
2018-07-07T12:38:37.566Z,52896
2018-07-07T12:39:47.371Z,68672
2018-07-07T12:40:57.519Z,77312
2018-07-07T12:42:07.609Z,74528
2018-07-07T12:43:17.150Z,70048
2018-07-07T12:44:27.014Z,102816
2018-07-07T12:45:36.844Z,73536
2018-07-07T12:46:46.945Z,96288
2018-07-07T12:47:56.749Z,73184
2018-07-07T12:49:06.853Z,49344
2018-07-07T12:50:16.194Z,93440
2018-07-07T12:51:25.748Z,88704
2018-07-07T12:52:35.305Z,95392
2018-07-07T12:53:45.390Z,92736
2018-07-07T12:54:55.481Z,94592
2018-07-07T12:56:05.332Z,93344
2018-07-07T12:57:15.156Z,95776
2018-07-07T12:58:25.251Z,92832
2018-07-07T12:59:35.068Z,93920
2018-07-07T13:00:44.891Z,98464
2018-07-07T13:01:54.754Z,94688
2018-07-07T13:03:04.301Z,92800
2018-07-07T13:04:14.124Z,96896
2018-07-07T13:05:23.944Z,95008
2018-07-07T13:06:33.764Z,92928
2018-07-07T13:07:43.907Z,90208
2018-07-07T13:08:53.726Z,92640
2018-07-07T13:10:03.824Z,95584
2018-07-07T13:11:13.918Z,92512
2018-07-07T13:12:23.739Z,94048
2018-07-07T13:13:33.599Z,93760
2018-07-07T13:14:43.686Z,96064
2018-07-07T13:15:53.499Z,96992
2018-07-07T13:17:03.313Z,92544
2018-07-07T13:18:13.129Z,89216
2018-07-07T13:19:23.005Z,92576
2018-07-07T13:20:32.814Z,88448
2018-07-07T13:21:42.650Z,84064
2018-07-07T13:22:52.459Z,86656
2018-07-07T13:24:02.283Z,95328
2018-07-07T13:25:12.165Z,96544
2018-07-07T13:26:22.162Z,94880
2018-07-07T13:27:32.012Z,90720
2018-07-07T13:28:42.101Z,89408
2018-07-07T13:29:51.650Z,94368
2018-07-07T13:31:01.526Z,93600
2018-07-07T13:32:11.348Z,94560
2018-07-07T13:33:21.436Z,98848
2018-07-07T13:34:31.732Z,91136
2018-07-07T13:35:41.826Z,83136
2018-07-07T13:36:51.690Z,84576
2018-07-07T13:38:01.779Z,82464
2018-07-07T13:39:11.317Z,83680
2018-07-07T13:40:20.885Z,79616
2018-07-07T13:41:30.711Z,76096
2018-07-07T13:42:40.591Z,88256
2018-07-07T13:43:50.682Z,90144
2018-07-07T13:45:00.499Z,92160
2018-07-07T13:46:09.766Z,92256
2018-07-07T13:47:19.578Z,90048
2018-07-07T13:48:29.720Z,90016
2018-07-07T13:49:39.535Z,91424
2018-07-07T13:50:49.089Z,91744
2018-07-07T13:51:58.921Z,98112
2018-07-07T13:53:08.735Z,104832
2018-07-07T13:54:18.887Z,109312
2018-07-07T13:55:28.973Z,99232
2018-07-07T13:56:38.804Z,89184
2018-07-07T13:57:48.624Z,90048
2018-07-07T13:58:58.445Z,91616
2018-07-07T14:00:08.614Z,91296
2018-07-07T14:01:18.430Z,92480
2018-07-07T14:02:28.549Z,90624
2018-07-07T14:03:38.084Z,90848
2018-07-07T14:04:47.902Z,89632
2018-07-07T14:05:58.050Z,85216
2018-07-07T14:07:07.604Z,92736
2018-07-07T14:08:17.705Z,98752
2018-07-07T14:09:27.974Z,93216
2018-07-07T14:10:38.095Z,93088
2018-07-07T14:11:47.689Z,88640
2018-07-07T14:12:57.787Z,86912
2018-07-07T14:14:07.905Z,85664
2018-07-07T14:15:17.987Z,88832
2018-07-07T14:16:27.855Z,84288
2018-07-07T14:17:38.393Z,79200
2018-07-07T14:18:48.492Z,84480
2018-07-07T14:19:58.315Z,88064
2018-07-07T14:21:07.865Z,85856
2018-07-07T14:22:17.425Z,86976
2018-07-07T14:23:27.635Z,83456
2018-07-07T14:24:37.550Z,80576
2018-07-07T14:25:47.108Z,83360
2018-07-07T14:26:56.926Z,84224
2018-07-07T14:28:06.508Z,85088
2018-07-07T14:29:16.378Z,85088
2018-07-07T14:30:26.476Z,84768
2018-07-07T14:31:36.289Z,82208
2018-07-07T14:32:45.835Z,82880
2018-07-07T14:33:55.916Z,85600
2018-07-07T14:35:06.058Z,84768
2018-07-07T14:36:16.156Z,79136
2018-07-07T14:37:25.992Z,75872
2018-07-07T14:38:35.962Z,77984
2018-07-07T14:39:46.060Z,77184
2018-07-07T14:40:56.208Z,80672
2018-07-07T14:42:06.025Z,77696
2018-07-07T14:43:16.117Z,76800
2018-07-07T14:44:25.925Z,79456
2018-07-07T14:45:36.147Z,82656
2018-07-07T14:46:46.132Z,81952
2018-07-07T14:47:55.965Z,76576
2018-07-07T14:49:06.052Z,78752
2018-07-07T14:50:16.153Z,79168
2018-07-07T14:51:26.238Z,75392
2018-07-07T14:52:36.216Z,74048
2018-07-07T14:53:46.024Z,74784
2018-07-07T14:54:56.099Z,75520
2018-07-07T14:56:05.653Z,73376
2018-07-07T14:57:15.465Z,76416
2018-07-07T14:58:25.364Z,83232
2018-07-07T14:59:34.845Z,98688
2018-07-07T15:00:44.393Z,98592
2018-07-07T15:01:54.195Z,82624
2018-07-07T15:03:03.748Z,61632
2018-07-07T15:04:13.718Z,50016
2018-07-07T15:05:23.816Z,46176
2018-07-07T15:06:33.643Z,45184
2018-07-07T15:07:43.482Z,47168
2018-07-07T15:08:53.312Z,47712
2018-07-07T15:10:03.732Z,50400
2018-07-07T15:11:13.987Z,50816
2018-07-07T15:12:24.103Z,50208
2018-07-07T15:13:33.653Z,51264
2018-07-07T15:14:43.733Z,53856
2018-07-07T15:15:53.436Z,59616
2018-07-07T15:17:03.583Z,61504
2018-07-07T15:18:13.664Z,69440
2018-07-07T15:19:23.755Z,67264
2018-07-07T15:20:33.586Z,67424
2018-07-07T15:21:43.855Z,68928
2018-07-07T15:22:54.186Z,69440
2018-07-07T15:24:04.431Z,70272
2018-07-07T15:25:14.251Z,74816
2018-07-07T15:26:24.339Z,78304
2018-07-07T15:27:34.213Z,76800
2018-07-07T15:28:44.029Z,74432
2018-07-07T15:29:53.842Z,77472
2018-07-07T15:31:03.936Z,79232
2018-07-07T15:32:14.019Z,78176
2018-07-07T15:33:24.136Z,82944
2018-07-07T15:34:33.975Z,87584
2018-07-07T15:35:43.521Z,89184
2018-07-07T15:36:53.384Z,88544